sensor_id;sensor_type;location;lat;lon;timestamp;P1;durP1;ratioP1;P2;durP2;ratioP2
16039;SDS011;8124;48.634;8.120;2023-03-12T00:02:48;36.47;;;32.53;;
16039;SDS011;8124;48.634;8.120;2023-03-12T00:07:51;36.43;;;32.10;;
16039;SDS011;8124;48.634;8.120;2023-03-12T00:12:55;35.75;;;31.50;;
16039;SDS011;8124;48.634;8.120;2023-03-12T00:17:59;36.53;;;32.28;;
16039;SDS011;8124;48.634;8.120;2023-03-12T00:23:02;36.60;;;31.50;;
16039;SDS011;8124;48.634;8.120;2023-03-12T00:28:04;35.23;;;31.30;;
16039;SDS011;8124;48.634;8.120;2023-03-12T00:33:09;36.10;;;32.17;;
16039;SDS011;8124;48.634;8.120;2023-03-12T00:38:12;35.20;;;31.37;;
16039;SDS011;8124;48.634;8.120;2023-03-12T00:43:15;38.97;;;32.03;;
16039;SDS011;8124;48.634;8.120;2023-03-12T00:48:19;37.50;;;32.63;;
16039;SDS011;8124;48.634;8.120;2023-03-12T00:53:22;36.13;;;32.10;;
16039;SDS011;8124;48.634;8.120;2023-03-12T00:58:25;36.00;;;32.20;;
16039;SDS011;8124;48.634;8.120;2023-03-12T01:03:29;38.43;;;32.53;;
16039;SDS011;8124;48.634;8.120;2023-03-12T01:08:32;38.77;;;32.10;;
16039;SDS011;8124;48.634;8.120;2023-03-12T01:13:35;37.17;;;32.80;;
16039;SDS011;8124;48.634;8.120;2023-03-12T01:18:40;37.23;;;32.80;;
16039;SDS011;8124;48.634;8.120;2023-03-12T01:23:43;38.63;;;32.80;;
16039;SDS011;8124;48.634;8.120;2023-03-12T01:28:45;36.67;;;32.67;;
16039;SDS011;8124;48.634;8.120;2023-03-12T01:33:50;37.93;;;33.00;;
16039;SDS011;8124;48.634;8.120;2023-03-12T01:38:55;37.27;;;33.17;;
16039;SDS011;8124;48.634;8.120;2023-03-12T01:43:59;40.60;;;32.97;;
16039;SDS011;8124;48.634;8.120;2023-03-12T01:49:07;36.57;;;32.17;;
16039;SDS011;8124;48.634;8.120;2023-03-12T01:54:13;36.23;;;32.40;;
16039;SDS011;8124;48.634;8.120;2023-03-12T01:59:20;36.87;;;32.93;;
16039;SDS011;8124;48.634;8.120;2023-03-12T02:04:27;38.77;;;33.50;;
16039;SDS011;8124;48.634;8.120;2023-03-12T02:09:32;39.17;;;32.63;;
16039;SDS011;8124;48.634;8.120;2023-03-12T02:14:38;37.43;;;31.93;;
16039;SDS011;8124;48.634;8.120;2023-03-12T02:19:45;36.87;;;32.97;;
16039;SDS011;8124;48.634;8.120;2023-03-12T02:24:57;36.27;;;32.30;;
16039;SDS011;8124;48.634;8.120;2023-03-12T02:30:07;36.30;;;32.47;;
16039;SDS011;8124;48.634;8.120;2023-03-12T02:35:15;36.90;;;32.90;;
16039;SDS011;8124;48.634;8.120;2023-03-12T02:40:21;37.00;;;33.00;;
16039;SDS011;8124;48.634;8.120;2023-03-12T02:45:29;37.30;;;33.40;;
16039;SDS011;8124;48.634;8.120;2023-03-12T02:50:32;36.20;;;32.30;;
16039;SDS011;8124;48.634;8.120;2023-03-12T02:55:37;36.00;;;32.23;;
16039;SDS011;8124;48.634;8.120;2023-03-12T03:00:41;37.33;;;33.00;;
16039;SDS011;8124;48.634;8.120;2023-03-12T03:05:44;37.10;;;33.20;;
16039;SDS011;8124;48.634;8.120;2023-03-12T03:10:49;36.43;;;32.57;;
16039;SDS011;8124;48.634;8.120;2023-03-12T03:15:53;36.43;;;32.57;;
16039;SDS011;8124;48.634;8.120;2023-03-12T03:20:58;37.77;;;33.17;;
16039;SDS011;8124;48.634;8.120;2023-03-12T03:26:05;36.67;;;32.77;;
16039;SDS011;8124;48.634;8.120;2023-03-12T03:31:09;36.80;;;32.90;;
16039;SDS011;8124;48.634;8.120;2023-03-12T03:36:14;39.40;;;34.05;;
16039;SDS011;8124;48.634;8.120;2023-03-12T03:41:26;37.87;;;33.73;;
16039;SDS011;8124;48.634;8.120;2023-03-12T03:46:31;37.40;;;33.30;;
16039;SDS011;8124;48.634;8.120;2023-03-12T03:51:38;37.77;;;33.67;;
16039;SDS011;8124;48.634;8.120;2023-03-12T03:56:44;38.10;;;33.73;;
16039;SDS011;8124;48.634;8.120;2023-03-12T04:01:49;38.20;;;34.07;;
16039;SDS011;8124;48.634;8.120;2023-03-12T04:06:52;38.40;;;33.73;;
16039;SDS011;8124;48.634;8.120;2023-03-12T04:11:55;37.20;;;33.27;;
16039;SDS011;8124;48.634;8.120;2023-03-12T04:17:00;37.23;;;33.23;;
16039;SDS011;8124;48.634;8.120;2023-03-12T04:22:03;38.10;;;33.03;;
16039;SDS011;8124;48.634;8.120;2023-03-12T04:27:06;36.40;;;32.60;;
16039;SDS011;8124;48.634;8.120;2023-03-12T04:32:10;38.17;;;33.97;;
16039;SDS011;8124;48.634;8.120;2023-03-12T04:37:14;38.13;;;33.73;;
16039;SDS011;8124;48.634;8.120;2023-03-12T04:42:17;36.90;;;32.67;;
16039;SDS011;8124;48.634;8.120;2023-03-12T04:47:22;41.37;;;33.67;;
16039;SDS011;8124;48.634;8.120;2023-03-12T04:52:26;37.27;;;32.73;;
16039;SDS011;8124;48.634;8.120;2023-03-12T04:57:29;36.23;;;32.37;;
16039;SDS011;8124;48.634;8.120;2023-03-12T05:02:33;36.73;;;32.73;;
16039;SDS011;8124;48.634;8.120;2023-03-12T05:07:37;37.53;;;33.53;;
16039;SDS011;8124;48.634;8.120;2023-03-12T05:12:40;37.37;;;33.00;;
16039;SDS011;8124;48.634;8.120;2023-03-12T05:17:45;38.30;;;34.10;;
16039;SDS011;8124;48.634;8.120;2023-03-12T05:22:48;37.07;;;32.63;;
16039;SDS011;8124;48.634;8.120;2023-03-12T05:27:51;38.13;;;34.03;;
16039;SDS011;8124;48.634;8.120;2023-03-12T05:32:57;37.23;;;33.23;;
16039;SDS011;8124;48.634;8.120;2023-03-12T05:38:01;38.03;;;33.90;;
16039;SDS011;8124;48.634;8.120;2023-03-12T05:43:04;39.13;;;34.57;;
16039;SDS011;8124;48.634;8.120;2023-03-12T05:48:08;39.97;;;33.20;;
16039;SDS011;8124;48.634;8.120;2023-03-12T05:53:11;36.33;;;32.43;;
16039;SDS011;8124;48.634;8.120;2023-03-12T05:58:16;36.83;;;32.83;;
16039;SDS011;8124;48.634;8.120;2023-03-12T06:03:20;36.87;;;32.97;;
16039;SDS011;8124;48.634;8.120;2023-03-12T06:08:24;37.00;;;33.03;;
16039;SDS011;8124;48.634;8.120;2023-03-12T06:13:27;36.57;;;32.67;;
16039;SDS011;8124;48.634;8.120;2023-03-12T06:18:33;37.30;;;32.97;;
16039;SDS011;8124;48.634;8.120;2023-03-12T06:23:36;37.00;;;33.13;;
16039;SDS011;8124;48.634;8.120;2023-03-12T06:28:41;37.43;;;33.40;;
16039;SDS011;8124;48.634;8.120;2023-03-12T06:33:47;40.27;;;33.70;;
16039;SDS011;8124;48.634;8.120;2023-03-12T06:38:50;37.93;;;33.00;;
16039;SDS011;8124;48.634;8.120;2023-03-12T06:43:57;38.03;;;33.93;;
16039;SDS011;8124;48.634;8.120;2023-03-12T06:49:03;37.90;;;33.80;;
16039;SDS011;8124;48.634;8.120;2023-03-12T06:54:06;38.37;;;33.63;;
16039;SDS011;8124;48.634;8.120;2023-03-12T06:59:09;37.13;;;33.17;;
16039;SDS011;8124;48.634;8.120;2023-03-12T07:04:13;35.87;;;32.07;;
16039;SDS011;8124;48.634;8.120;2023-03-12T07:09:16;34.85;;;31.15;;
16039;SDS011;8124;48.634;8.120;2023-03-12T07:14:20;34.70;;;31.05;;
16039;SDS011;8124;48.634;8.120;2023-03-12T07:19:24;34.50;;;30.83;;
16039;SDS011;8124;48.634;8.120;2023-03-12T07:24:27;34.37;;;30.77;;
16039;SDS011;8124;48.634;8.120;2023-03-12T07:29:30;34.58;;;30.85;;
16039;SDS011;8124;48.634;8.120;2023-03-12T07:34:34;34.97;;;31.27;;
16039;SDS011;8124;48.634;8.120;2023-03-12T07:39:40;34.90;;;31.20;;
16039;SDS011;8124;48.634;8.120;2023-03-12T07:44:44;34.95;;;31.15;;
16039;SDS011;8124;48.634;8.120;2023-03-12T07:49:49;35.70;;;31.67;;
16039;SDS011;8124;48.634;8.120;2023-03-12T07:54:52;36.33;;;32.17;;
16039;SDS011;8124;48.634;8.120;2023-03-12T07:59:56;35.70;;;31.80;;
16039;SDS011;8124;48.634;8.120;2023-03-12T08:05:01;36.20;;;32.28;;
16039;SDS011;8124;48.634;8.120;2023-03-12T08:10:05;35.05;;;31.35;;
16039;SDS011;8124;48.634;8.120;2023-03-12T08:15:10;36.13;;;32.28;;
16039;SDS011;8124;48.634;8.120;2023-03-12T08:20:16;42.63;;;35.10;;
16039;SDS011;8124;48.634;8.120;2023-03-12T08:25:20;40.83;;;36.42;;
16039;SDS011;8124;48.634;8.120;2023-03-12T08:30:24;39.70;;;35.28;;
16039;SDS011;8124;48.634;8.120;2023-03-12T08:35:31;41.22;;;35.17;;
16039;SDS011;8124;48.634;8.120;2023-03-12T08:40:34;39.63;;;35.42;;
16039;SDS011;8124;48.634;8.120;2023-03-12T08:45:37;40.72;;;35.33;;
16039;SDS011;8124;48.634;8.120;2023-03-12T08:50:48;40.00;;;35.60;;
16039;SDS011;8124;48.634;8.120;2023-03-12T08:55:51;39.17;;;34.70;;
16039;SDS011;8124;48.634;8.120;2023-03-12T09:01:01;44.70;;;37.35;;
16039;SDS011;8124;48.634;8.120;2023-03-12T09:06:06;39.05;;;34.05;;
16039;SDS011;8124;48.634;8.120;2023-03-12T09:11:13;39.20;;;34.10;;
16039;SDS011;8124;48.634;8.120;2023-03-12T09:16:16;45.55;;;32.58;;
16039;SDS011;8124;48.634;8.120;2023-03-12T09:21:21;36.33;;;32.38;;
16039;SDS011;8124;48.634;8.120;2023-03-12T09:26:24;36.85;;;32.85;;
16039;SDS011;8124;48.634;8.120;2023-03-12T09:31:27;37.75;;;32.70;;
16039;SDS011;8124;48.634;8.120;2023-03-12T09:36:31;37.78;;;32.40;;
16039;SDS011;8124;48.634;8.120;2023-03-12T09:41:35;36.67;;;32.75;;
16039;SDS011;8124;48.634;8.120;2023-03-12T09:46:41;37.58;;;32.72;;
16039;SDS011;8124;48.634;8.120;2023-03-12T09:51:49;39.88;;;32.83;;
16039;SDS011;8124;48.634;8.120;2023-03-12T09:56:57;37.78;;;33.22;;
16039;SDS011;8124;48.634;8.120;2023-03-12T10:02:04;37.05;;;32.95;;
16039;SDS011;8124;48.634;8.120;2023-03-12T10:07:25;40.85;;;34.60;;
16039;SDS011;8124;48.634;8.120;2023-03-12T10:12:35;38.30;;;33.72;;
16039;SDS011;8124;48.634;8.120;2023-03-12T10:17:51;40.10;;;34.33;;
16039;SDS011;8124;48.634;8.120;2023-03-12T10:23:02;41.13;;;34.83;;
16039;SDS011;8124;48.634;8.120;2023-03-12T10:28:11;38.80;;;34.60;;
16039;SDS011;8124;48.634;8.120;2023-03-12T10:33:18;38.17;;;33.75;;
16039;SDS011;8124;48.634;8.120;2023-03-12T10:38:25;37.58;;;33.58;;
16039;SDS011;8124;48.634;8.120;2023-03-12T10:43:30;37.17;;;33.13;;
16039;SDS011;8124;48.634;8.120;2023-03-12T10:48:36;37.33;;;33.22;;
16039;SDS011;8124;48.634;8.120;2023-03-12T10:53:40;39.70;;;33.50;;
16039;SDS011;8124;48.634;8.120;2023-03-12T10:58:48;37.15;;;33.17;;
16039;SDS011;8124;48.634;8.120;2023-03-12T11:03:53;37.78;;;33.65;;
16039;SDS011;8124;48.634;8.120;2023-03-12T11:09:15;37.72;;;33.63;;
16039;SDS011;8124;48.634;8.120;2023-03-12T11:14:23;38.35;;;33.75;;
16039;SDS011;8124;48.634;8.120;2023-03-12T11:19:28;37.58;;;33.47;;
16039;SDS011;8124;48.634;8.120;2023-03-12T11:24:34;39.35;;;35.05;;
16039;SDS011;8124;48.634;8.120;2023-03-12T11:29:38;39.45;;;34.03;;
16039;SDS011;8124;48.634;8.120;2023-03-12T11:34:44;42.15;;;33.90;;
16039;SDS011;8124;48.634;8.120;2023-03-12T11:39:53;37.83;;;33.42;;
16039;SDS011;8124;48.634;8.120;2023-03-12T11:50:18;41.28;;;35.17;;
16039;SDS011;8124;48.634;8.120;2023-03-12T11:55:40;40.28;;;34.25;;
16039;SDS011;8124;48.634;8.120;2023-03-12T12:00:51;40.65;;;34.00;;
16039;SDS011;8124;48.634;8.120;2023-03-12T12:06:04;38.78;;;34.42;;
16039;SDS011;8124;48.634;8.120;2023-03-12T12:11:14;38.25;;;33.33;;
16039;SDS011;8124;48.634;8.120;2023-03-12T12:16:30;39.92;;;34.15;;
16039;SDS011;8124;48.634;8.120;2023-03-12T12:22:05;39.90;;;34.33;;
16039;SDS011;8124;48.634;8.120;2023-03-12T12:27:24;39.60;;;33.83;;
16039;SDS011;8124;48.634;8.120;2023-03-12T12:32:31;40.72;;;34.42;;
16039;SDS011;8124;48.634;8.120;2023-03-12T12:37:49;42.30;;;34.63;;
16039;SDS011;8124;48.634;8.120;2023-03-12T12:43:02;44.08;;;35.35;;
16039;SDS011;8124;48.634;8.120;2023-03-12T12:48:15;40.40;;;34.15;;
16039;SDS011;8124;48.634;8.120;2023-03-12T12:53:21;40.55;;;34.10;;
16039;SDS011;8124;48.634;8.120;2023-03-12T12:58:31;40.38;;;34.45;;
16039;SDS011;8124;48.634;8.120;2023-03-12T13:03:46;41.55;;;34.90;;
16039;SDS011;8124;48.634;8.120;2023-03-12T13:08:58;39.10;;;34.15;;
16039;SDS011;8124;48.634;8.120;2023-03-12T13:14:17;40.35;;;33.97;;
16039;SDS011;8124;48.634;8.120;2023-03-12T13:19:25;39.35;;;33.45;;
16039;SDS011;8124;48.634;8.120;2023-03-12T13:24:30;43.55;;;34.22;;
16039;SDS011;8124;48.634;8.120;2023-03-12T13:29:39;38.40;;;33.92;;
16039;SDS011;8124;48.634;8.120;2023-03-12T13:34:43;40.50;;;33.50;;
16039;SDS011;8124;48.634;8.120;2023-03-12T13:39:47;39.03;;;34.28;;
16039;SDS011;8124;48.634;8.120;2023-03-12T13:44:53;38.28;;;33.83;;
16039;SDS011;8124;48.634;8.120;2023-03-12T13:49:57;40.42;;;34.22;;
16039;SDS011;8124;48.634;8.120;2023-03-12T13:55:06;41.42;;;33.75;;
16039;SDS011;8124;48.634;8.120;2023-03-12T14:00:19;39.47;;;34.05;;
16039;SDS011;8124;48.634;8.120;2023-03-12T14:05:27;39.85;;;34.20;;
16039;SDS011;8124;48.634;8.120;2023-03-12T14:10:47;39.85;;;33.90;;
16039;SDS011;8124;48.634;8.120;2023-03-12T14:16:01;41.92;;;34.80;;
16039;SDS011;8124;48.634;8.120;2023-03-12T14:21:12;39.83;;;33.92;;
16039;SDS011;8124;48.634;8.120;2023-03-12T14:26:18;42.65;;;34.50;;
16039;SDS011;8124;48.634;8.120;2023-03-12T14:31:27;41.22;;;35.03;;
16039;SDS011;8124;48.634;8.120;2023-03-12T14:36:35;39.92;;;34.78;;
16039;SDS011;8124;48.634;8.120;2023-03-12T14:41:42;41.80;;;34.63;;
16039;SDS011;8124;48.634;8.120;2023-03-12T14:46:55;38.40;;;34.15;;
16039;SDS011;8124;48.634;8.120;2023-03-12T14:52:00;42.85;;;34.80;;
16039;SDS011;8124;48.634;8.120;2023-03-12T14:57:03;39.70;;;34.30;;
16039;SDS011;8124;48.634;8.120;2023-03-12T15:02:12;42.08;;;34.65;;
16039;SDS011;8124;48.634;8.120;2023-03-12T15:07:17;45.10;;;34.67;;
16039;SDS011;8124;48.634;8.120;2023-03-12T15:12:23;44.05;;;34.65;;
16039;SDS011;8124;48.634;8.120;2023-03-12T15:17:31;43.72;;;34.38;;
16039;SDS011;8124;48.634;8.120;2023-03-12T15:22:35;43.00;;;34.17;;
16039;SDS011;8124;48.634;8.120;2023-03-12T15:27:39;40.45;;;34.97;;
16039;SDS011;8124;48.634;8.120;2023-03-12T15:32:47;41.70;;;34.88;;
16039;SDS011;8124;48.634;8.120;2023-03-12T15:38:13;42.65;;;34.80;;
16039;SDS011;8124;48.634;8.120;2023-03-12T15:43:19;44.17;;;35.92;;
16039;SDS011;8124;48.634;8.120;2023-03-12T15:48:26;43.03;;;34.15;;
16039;SDS011;8124;48.634;8.120;2023-03-12T15:53:32;42.75;;;34.75;;
16039;SDS011;8124;48.634;8.120;2023-03-12T15:58:37;43.60;;;34.80;;
16039;SDS011;8124;48.634;8.120;2023-03-12T16:03:43;38.42;;;34.13;;
16039;SDS011;8124;48.634;8.120;2023-03-12T16:08:47;42.05;;;34.28;;
16039;SDS011;8124;48.634;8.120;2023-03-12T16:13:55;43.85;;;34.72;;
16039;SDS011;8124;48.634;8.120;2023-03-12T16:19:07;39.58;;;33.95;;
16039;SDS011;8124;48.634;8.120;2023-03-12T16:24:12;42.30;;;34.72;;
16039;SDS011;8124;48.634;8.120;2023-03-12T16:29:17;43.28;;;35.30;;
16039;SDS011;8124;48.634;8.120;2023-03-12T16:34:22;40.30;;;35.35;;
16039;SDS011;8124;48.634;8.120;2023-03-12T16:39:25;44.17;;;35.17;;
16039;SDS011;8124;48.634;8.120;2023-03-12T16:44:31;41.15;;;34.80;;
16039;SDS011;8124;48.634;8.120;2023-03-12T16:49:37;46.80;;;35.35;;
16039;SDS011;8124;48.634;8.120;2023-03-12T16:54:40;42.97;;;36.08;;
16039;SDS011;8124;48.634;8.120;2023-03-12T16:59:45;43.70;;;36.03;;
16039;SDS011;8124;48.634;8.120;2023-03-12T17:04:49;43.10;;;35.13;;
16039;SDS011;8124;48.634;8.120;2023-03-12T17:09:53;41.88;;;35.20;;
16039;SDS011;8124;48.634;8.120;2023-03-12T17:14:56;45.35;;;35.10;;
16039;SDS011;8124;48.634;8.120;2023-03-12T17:20:01;46.10;;;34.58;;
16039;SDS011;8124;48.634;8.120;2023-03-12T17:25:09;42.97;;;35.22;;
16039;SDS011;8124;48.634;8.120;2023-03-12T17:30:22;42.33;;;35.13;;
16039;SDS011;8124;48.634;8.120;2023-03-12T17:35:27;40.20;;;34.65;;
16039;SDS011;8124;48.634;8.120;2023-03-12T17:40:32;44.80;;;35.55;;
16039;SDS011;8124;48.634;8.120;2023-03-12T17:45:36;43.65;;;35.10;;
16039;SDS011;8124;48.634;8.120;2023-03-12T17:50:41;43.15;;;36.60;;
16039;SDS011;8124;48.634;8.120;2023-03-12T17:55:45;43.88;;;34.88;;
16039;SDS011;8124;48.634;8.120;2023-03-12T18:00:51;41.28;;;34.47;;
16039;SDS011;8124;48.634;8.120;2023-03-12T18:05:56;44.67;;;35.72;;
16039;SDS011;8124;48.634;8.120;2023-03-12T18:10:59;45.03;;;35.05;;
16039;SDS011;8124;48.634;8.120;2023-03-12T18:16:03;40.03;;;34.40;;
16039;SDS011;8124;48.634;8.120;2023-03-12T18:21:25;41.40;;;34.60;;
16039;SDS011;8124;48.634;8.120;2023-03-12T18:26:28;43.13;;;35.05;;
16039;SDS011;8124;48.634;8.120;2023-03-12T18:31:41;41.67;;;35.38;;
16039;SDS011;8124;48.634;8.120;2023-03-12T18:36:46;41.70;;;35.15;;
16039;SDS011;8124;48.634;8.120;2023-03-12T18:41:49;40.15;;;34.60;;
16039;SDS011;8124;48.634;8.120;2023-03-12T18:46:56;42.72;;;34.63;;
16039;SDS011;8124;48.634;8.120;2023-03-12T18:52:00;41.97;;;34.67;;
16039;SDS011;8124;48.634;8.120;2023-03-12T18:57:03;40.97;;;34.70;;
16039;SDS011;8124;48.634;8.120;2023-03-12T19:02:07;40.10;;;34.90;;
16039;SDS011;8124;48.634;8.120;2023-03-12T19:07:11;44.65;;;35.00;;
16039;SDS011;8124;48.634;8.120;2023-03-12T19:12:14;39.85;;;34.42;;
16039;SDS011;8124;48.634;8.120;2023-03-12T19:17:17;45.37;;;38.40;;
16039;SDS011;8124;48.634;8.120;2023-03-12T19:22:21;42.03;;;35.30;;
16039;SDS011;8124;48.634;8.120;2023-03-12T19:27:24;44.53;;;35.38;;
16039;SDS011;8124;48.634;8.120;2023-03-12T19:32:29;42.92;;;35.10;;
16039;SDS011;8124;48.634;8.120;2023-03-12T19:37:44;39.83;;;35.42;;
16039;SDS011;8124;48.634;8.120;2023-03-12T19:42:47;42.63;;;34.40;;
16039;SDS011;8124;48.634;8.120;2023-03-12T19:47:51;44.28;;;35.67;;
16039;SDS011;8124;48.634;8.120;2023-03-12T19:52:55;44.72;;;34.90;;
16039;SDS011;8124;48.634;8.120;2023-03-12T19:57:58;39.17;;;34.70;;
16039;SDS011;8124;48.634;8.120;2023-03-12T20:03:01;41.45;;;34.60;;
16039;SDS011;8124;48.634;8.120;2023-03-12T20:08:06;42.95;;;34.85;;
16039;SDS011;8124;48.634;8.120;2023-03-12T20:13:09;42.28;;;34.88;;
16039;SDS011;8124;48.634;8.120;2023-03-12T20:18:13;44.38;;;35.25;;
16039;SDS011;8124;48.634;8.120;2023-03-12T20:23:18;42.35;;;35.35;;
16039;SDS011;8124;48.634;8.120;2023-03-12T20:28:21;39.95;;;34.03;;
16039;SDS011;8124;48.634;8.120;2023-03-12T20:33:24;43.08;;;34.95;;
16039;SDS011;8124;48.634;8.120;2023-03-12T20:38:28;40.33;;;34.42;;
16039;SDS011;8124;48.634;8.120;2023-03-12T20:43:31;46.08;;;34.67;;
16039;SDS011;8124;48.634;8.120;2023-03-12T20:48:34;42.63;;;34.80;;
16039;SDS011;8124;48.634;8.120;2023-03-12T20:53:38;42.60;;;34.72;;
16039;SDS011;8124;48.634;8.120;2023-03-12T20:58:41;41.33;;;35.13;;
16039;SDS011;8124;48.634;8.120;2023-03-12T21:03:44;42.58;;;35.15;;
16039;SDS011;8124;48.634;8.120;2023-03-12T21:08:49;41.78;;;34.75;;
16039;SDS011;8124;48.634;8.120;2023-03-12T21:13:52;42.22;;;34.67;;
16039;SDS011;8124;48.634;8.120;2023-03-12T21:18:55;45.17;;;34.95;;
16039;SDS011;8124;48.634;8.120;2023-03-12T21:23:59;45.05;;;35.80;;
16039;SDS011;8124;48.634;8.120;2023-03-12T21:29:02;44.55;;;34.72;;
16039;SDS011;8124;48.634;8.120;2023-03-12T21:34:05;44.53;;;35.15;;
16039;SDS011;8124;48.634;8.120;2023-03-12T21:39:11;45.47;;;36.03;;
16039;SDS011;8124;48.634;8.120;2023-03-12T21:44:14;40.72;;;34.67;;
16039;SDS011;8124;48.634;8.120;2023-03-12T21:49:17;43.60;;;34.97;;
16039;SDS011;8124;48.634;8.120;2023-03-12T21:54:21;46.05;;;35.08;;
16039;SDS011;8124;48.634;8.120;2023-03-12T21:59:24;41.30;;;34.75;;
16039;SDS011;8124;48.634;8.120;2023-03-12T22:04:27;42.80;;;34.67;;
16039;SDS011;8124;48.634;8.120;2023-03-12T22:09:31;43.90;;;34.63;;
16039;SDS011;8124;48.634;8.120;2023-03-12T22:14:34;47.67;;;35.30;;
16039;SDS011;8124;48.634;8.120;2023-03-12T22:19:37;41.17;;;34.50;;
16039;SDS011;8124;48.634;8.120;2023-03-12T22:24:43;42.15;;;34.10;;
16039;SDS011;8124;48.634;8.120;2023-03-12T22:29:46;46.15;;;35.15;;
16039;SDS011;8124;48.634;8.120;2023-03-12T22:34:53;41.58;;;34.20;;
16039;SDS011;8124;48.634;8.120;2023-03-12T22:39:57;47.65;;;35.15;;
16039;SDS011;8124;48.634;8.120;2023-03-12T22:45:07;42.35;;;34.70;;
16039;SDS011;8124;48.634;8.120;2023-03-12T22:50:11;43.58;;;34.70;;
16039;SDS011;8124;48.634;8.120;2023-03-12T22:55:15;44.53;;;35.10;;
16039;SDS011;8124;48.634;8.120;2023-03-12T23:00:19;45.75;;;34.83;;
16039;SDS011;8124;48.634;8.120;2023-03-12T23:05:23;41.50;;;34.70;;
16039;SDS011;8124;48.634;8.120;2023-03-12T23:10:27;43.55;;;34.90;;
16039;SDS011;8124;48.634;8.120;2023-03-12T23:15:30;40.30;;;34.33;;
16039;SDS011;8124;48.634;8.120;2023-03-12T23:20:41;42.78;;;34.42;;
16039;SDS011;8124;48.634;8.120;2023-03-12T23:25:51;46.70;;;35.00;;
16039;SDS011;8124;48.634;8.120;2023-03-12T23:30:55;40.53;;;34.45;;
16039;SDS011;8124;48.634;8.120;2023-03-12T23:36:01;41.58;;;34.38;;
16039;SDS011;8124;48.634;8.120;2023-03-12T23:41:09;42.22;;;34.15;;
16039;SDS011;8124;48.634;8.120;2023-03-12T23:46:14;42.45;;;34.65;;
16039;SDS011;8124;48.634;8.120;2023-03-12T23:51:18;41.00;;;34.65;;
16039;SDS011;8124;48.634;8.120;2023-03-12T23:56:25;40.55;;;34.67;;
